Time;durP1;ratioP1;P1;durP2;ratioP2;P2;SDS_P1;SDS_P2;PMS_P1;PMS_P2;Temp;Humidity;BMP_temperature;BMP_pressure;BME280_temperature;BME280_humidity;BME280_pressure;Samples;Min_cycle;Max_cycle;Signal;HPM_P1;HPM_P2
2024/01/16 00:00:33;;;;;;;23.20;10.07;;;;;;;;;;5011905;28;20026;-52
2024/01/16 00:02:59;;;;;;;20.75;9.60;;;;;;;;;;5019079;28;20025;-55
2024/01/16 00:05:25;;;;;;;21.88;10.10;;;;;;;;;;5015017;28;20084;-52
2024/01/16 00:07:51;;;;;;;20.92;10.27;;;;;;;;;;5015660;28;20116;-56
2024/01/16 00:10:17;;;;;;;21.27;10.68;;;;;;;;;;5012193;28;20480;-52
2024/01/16 00:12:43;;;;;;;23.95;11.18;;;;;;;;;;5020081;28;20022;-53
2024/01/16 00:15:09;;;;;;;23.55;10.15;;;;;;;;;;5011908;28;20030;-53
2024/01/16 00:17:36;;;;;;;29.77;12.65;;;;;;;;;;5010555;28;20060;-57
2024/01/16 00:20:03;;;;;;;27.60;12.27;;;;;;;;;;5013881;28;20109;-55
2024/01/16 00:22:30;;;;;;;31.33;10.90;;;;;;;;;;5012109;28;20075;-55
2024/01/16 00:24:56;;;;;;;25.48;11.98;;;;;;;;;;5013005;28;20022;-55
2024/01/16 00:27:22;;;;;;;27.20;11.82;;;;;;;;;;5013366;28;20045;-56
2024/01/16 00:29:48;;;;;;;25.73;11.20;;;;;;;;;;5014767;28;20034;-55
2024/01/16 00:32:17;;;;;;;30.50;10.82;;;;;;;;;;5018963;28;20506;-55
2024/01/16 00:34:43;;;;;;;31.25;11.18;;;;;;;;;;5020682;28;20420;-52
2024/01/16 00:37:09;;;;;;;25.33;11.27;;;;;;;;;;5022917;28;20034;-53
2024/01/16 00:39:35;;;;;;;24.13;10.77;;;;;;;;;;5019485;28;20030;-54
2024/01/16 00:42:01;;;;;;;22.42;10.85;;;;;;;;;;5022642;28;20044;-55
2024/01/16 00:44:28;;;;;;;28.80;11.15;;;;;;;;;;5019225;28;20484;-55
2024/01/16 00:46:54;;;;;;;33.33;10.85;;;;;;;;;;5017489;28;20025;-53
2024/01/16 00:49:20;;;;;;;32.65;11.20;;;;;;;;;;5016291;28;20037;-54
2024/01/16 00:51:46;;;;;;;25.75;11.63;;;;;;;;;;5014859;28;20034;-54
2024/01/16 00:54:12;;;;;;;31.20;12.10;;;;;;;;;;5014344;28;20450;-55
2024/01/16 00:56:38;;;;;;;25.90;10.60;;;;;;;;;;5013756;28;20104;-53
2024/01/16 00:59:04;;;;;;;29.55;11.73;;;;;;;;;;5015234;28;20053;-53
2024/01/16 01:01:30;;;;;;;19.52;10.60;;;;;;;;;;5013046;28;20054;-53
2024/01/16 01:03:55;;;;;;;27.35;10.70;;;;;;;;;;5021434;28;20037;-57
2024/01/16 01:06:21;;;;;;;24.50;10.88;;;;;;;;;;5013399;28;20040;-56
2024/01/16 01:08:47;;;;;;;29.52;10.93;;;;;;;;;;5009820;28;20034;-54
2024/01/16 01:11:13;;;;;;;19.15;11.38;;;;;;;;;;5012021;28;20649;-52
2024/01/16 01:13:39;;;;;;;27.25;10.30;;;;;;;;;;5019873;28;20539;-50
2024/01/16 01:16:06;;;;;;;32.55;10.55;;;;;;;;;;5016162;28;20034;-51
2024/01/16 01:18:32;;;;;;;28.85;10.15;;;;;;;;;;5016722;28;20403;-50
2024/01/16 01:20:57;;;;;;;22.45;8.75;;;;;;;;;;5014613;28;20029;-50
2024/01/16 01:23:23;;;;;;;22.25;9.93;;;;;;;;;;5010404;28;20048;-53
2024/01/16 01:25:49;;;;;;;23.67;8.48;;;;;;;;;;5012157;28;20060;-53
2024/01/16 01:28:15;;;;;;;23.30;8.88;;;;;;;;;;5011425;28;20056;-53
2024/01/16 01:30:41;;;;;;;19.02;8.30;;;;;;;;;;5013581;28;20029;-53
2024/01/16 01:33:07;;;;;;;20.83;8.77;;;;;;;;;;5018009;28;20083;-54
2024/01/16 01:35:33;;;;;;;19.55;8.00;;;;;;;;;;5014454;28;20112;-56
2024/01/16 01:37:59;;;;;;;24.20;7.68;;;;;;;;;;5015400;28;20029;-54
2024/01/16 01:40:25;;;;;;;25.50;8.02;;;;;;;;;;5011953;28;20088;-51
2024/01/16 01:42:51;;;;;;;21.67;7.88;;;;;;;;;;5019023;28;20037;-52
2024/01/16 01:45:17;;;;;;;19.52;8.90;;;;;;;;;;5014328;28;20108;-51
2024/01/16 01:47:43;;;;;;;24.17;8.48;;;;;;;;;;5017690;28;20053;-53
2024/01/16 01:50:09;;;;;;;20.83;8.25;;;;;;;;;;5018882;28;20060;-54
2024/01/16 01:52:36;;;;;;;18.67;8.70;;;;;;;;;;5015209;28;20061;-53
2024/01/16 01:55:04;;;;;;;27.00;8.55;;;;;;;;;;5011630;28;20032;-54
2024/01/16 01:57:30;;;;;;;26.40;10.02;;;;;;;;;;5017876;28;20041;-52
2024/01/16 01:59:56;;;;;;;23.77;9.75;;;;;;;;;;5017686;28;20026;-54
2024/01/16 02:02:22;;;;;;;29.00;10.48;;;;;;;;;;5016295;28;20037;-53
2024/01/16 02:04:48;;;;;;;22.50;10.60;;;;;;;;;;5011003;28;20379;-49
2024/01/16 02:07:15;;;;;;;26.38;12.13;;;;;;;;;;5007311;28;20046;-54
2024/01/16 02:09:41;;;;;;;28.48;12.48;;;;;;;;;;5011533;28;20022;-53
2024/01/16 02:12:07;;;;;;;33.50;11.63;;;;;;;;;;5016553;28;20092;-55
2024/01/16 02:14:33;;;;;;;26.85;10.73;;;;;;;;;;5011957;28;20427;-54
2024/01/16 02:16:59;;;;;;;36.80;11.40;;;;;;;;;;5015023;28;20043;-56
2024/01/16 02:19:25;;;;;;;31.35;11.82;;;;;;;;;;5013867;28;20030;-52
2024/01/16 02:21:53;;;;;;;28.27;10.52;;;;;;;;;;5016684;28;20025;-52
2024/01/16 02:24:19;;;;;;;33.20;11.63;;;;;;;;;;5016536;28;20057;-52
2024/01/16 02:26:45;;;;;;;39.30;12.57;;;;;;;;;;5011889;28;20109;-53
2024/01/16 02:29:11;;;;;;;29.50;11.40;;;;;;;;;;5013184;28;20165;-50
2024/01/16 02:31:37;;;;;;;28.02;10.27;;;;;;;;;;5015718;28;20071;-48
2024/01/16 02:34:06;;;;;;;23.77;9.40;;;;;;;;;;5015380;28;20095;-53
2024/01/16 02:36:33;;;;;;;39.22;10.32;;;;;;;;;;5011277;28;20119;-53
2024/01/16 02:38:59;;;;;;;28.60;10.88;;;;;;;;;;5014432;28;20064;-53
2024/01/16 02:41:25;;;;;;;29.05;10.60;;;;;;;;;;5011903;28;20022;-54
2024/01/16 02:43:51;;;;;;;28.02;10.35;;;;;;;;;;5008730;28;20026;-54
2024/01/16 02:46:17;;;;;;;38.67;12.90;;;;;;;;;;5012294;28;20396;-52
2024/01/16 02:48:43;;;;;;;35.47;9.60;;;;;;;;;;5023247;28;20053;-56
2024/01/16 02:51:09;;;;;;;23.23;10.38;;;;;;;;;;5015632;28;20033;-55
2024/01/16 02:53:35;;;;;;;23.73;8.75;;;;;;;;;;5013949;28;20092;-55
2024/01/16 02:56:01;;;;;;;18.50;9.18;;;;;;;;;;5014270;28;20069;-52
2024/01/16 02:58:28;;;;;;;32.95;10.60;;;;;;;;;;5014607;28;20054;-54
2024/01/16 03:00:54;;;;;;;25.90;10.60;;;;;;;;;;5013742;28;20038;-55
2024/01/16 03:03:20;;;;;;;24.65;8.55;;;;;;;;;;5007754;28;20058;-56
2024/01/16 03:05:46;;;;;;;41.03;13.48;;;;;;;;;;5017264;28;20063;-55
2024/01/16 03:08:13;;;;;;;35.33;9.45;;;;;;;;;;5015456;28;20056;-54
2024/01/16 03:10:39;;;;;;;30.10;10.18;;;;;;;;;;5035016;28;20021;-54
2024/01/16 03:13:05;;;;;;;33.10;11.20;;;;;;;;;;5008574;28;20038;-52
2024/01/16 03:15:31;;;;;;;27.58;10.13;;;;;;;;;;5019739;28;20434;-52
2024/01/16 03:17:57;;;;;;;27.05;10.80;;;;;;;;;;5023041;28;20460;-55
2024/01/16 03:20:23;;;;;;;35.38;10.43;;;;;;;;;;5016048;28;20021;-52
2024/01/16 03:22:50;;;;;;;34.85;12.00;;;;;;;;;;5014764;28;20136;-55
2024/01/16 03:25:16;;;;;;;35.22;11.75;;;;;;;;;;5018605;28;20026;-52
2024/01/16 03:27:42;;;;;;;31.30;13.15;;;;;;;;;;5014144;28;20109;-51
2024/01/16 03:30:09;;;;;;;25.85;12.10;;;;;;;;;;5022221;28;20096;-52
2024/01/16 03:32:35;;;;;;;29.98;12.48;;;;;;;;;;5018916;28;20109;-53
2024/01/16 03:35:01;;;;;;;33.40;12.65;;;;;;;;;;5016881;28;20488;-55
2024/01/16 03:37:27;;;;;;;32.15;12.95;;;;;;;;;;5022691;28;20053;-53
2024/01/16 03:39:54;;;;;;;32.88;9.73;;;;;;;;;;5020345;28;20022;-53
2024/01/16 03:42:20;;;;;;;31.98;11.27;;;;;;;;;;5013163;28;20048;-54
2024/01/16 03:44:46;;;;;;;27.75;11.20;;;;;;;;;;5023865;28;20054;-55
2024/01/16 03:47:12;;;;;;;25.58;12.82;;;;;;;;;;5022802;28;20025;-54
2024/01/16 03:49:38;;;;;;;27.65;11.25;;;;;;;;;;5022032;28;20101;-52
2024/01/16 03:52:04;;;;;;;25.52;10.88;;;;;;;;;;5022829;28;20399;-51
2024/01/16 03:54:30;;;;;;;31.45;12.52;;;;;;;;;;5018887;28;20057;-51
2024/01/16 03:56:56;;;;;;;26.90;11.20;;;;;;;;;;5017910;28;20065;-49
2024/01/16 03:59:23;;;;;;;23.83;9.18;;;;;;;;;;5022679;28;20060;-54
2024/01/16 04:01:49;;;;;;;25.30;11.27;;;;;;;;;;5023403;28;20080;-54
2024/01/16 04:04:15;;;;;;;38.80;10.63;;;;;;;;;;5019463;28;20025;-54
2024/01/16 04:06:42;;;;;;;28.90;11.13;;;;;;;;;;5015013;28;20511;-55
2024/01/16 04:09:08;;;;;;;30.35;11.07;;;;;;;;;;5022647;28;20420;-53
2024/01/16 04:11:34;;;;;;;27.58;9.60;;;;;;;;;;5011595;28;20020;-53
2024/01/16 04:14:00;;;;;;;24.98;10.35;;;;;;;;;;5013729;28;20029;-55
2024/01/16 04:16:26;;;;;;;26.05;11.50;;;;;;;;;;5014921;28;20428;-53
2024/01/16 04:18:52;;;;;;;23.95;10.02;;;;;;;;;;5018149;28;20014;-53
2024/01/16 04:21:18;;;;;;;24.00;11.00;;;;;;;;;;5019487;28;20056;-52
2024/01/16 04:23:44;;;;;;;28.10;11.55;;;;;;;;;;5016940;28;20022;-55
2024/01/16 04:26:11;;;;;;;27.67;10.50;;;;;;;;;;5017298;28;20030;-55
2024/01/16 04:28:37;;;;;;;28.67;10.32;;;;;;;;;;5013317;28;20104;-54
2024/01/16 04:31:03;;;;;;;21.42;9.57;;;;;;;;;;5015121;28;20029;-52
2024/01/16 04:33:29;;;;;;;34.45;10.85;;;;;;;;;;5019860;28;20038;-52
2024/01/16 04:35:55;;;;;;;27.15;10.50;;;;;;;;;;5014782;28;20088;-51
2024/01/16 04:38:21;;;;;;;28.65;9.77;;;;;;;;;;5015632;28;20030;-52
2024/01/16 04:40:47;;;;;;;29.35;9.65;;;;;;;;;;5012402;28;20030;-52
2024/01/16 04:43:13;;;;;;;33.97;8.98;;;;;;;;;;5014186;28;20112;-55
2024/01/16 04:45:39;;;;;;;30.33;8.85;;;;;;;;;;5015189;28;20025;-55
2024/01/16 04:48:05;;;;;;;18.40;8.80;;;;;;;;;;5022259;28;20504;-53
2024/01/16 04:50:31;;;;;;;34.95;10.40;;;;;;;;;;5014111;28;20032;-51
2024/01/16 04:53:00;;;;;;;26.88;8.15;;;;;;;;;;5015952;28;20040;-52
2024/01/16 04:55:27;;;;;;;28.35;8.63;;;;;;;;;;5026772;28;20021;-52
2024/01/16 04:57:53;;;;;;;16.95;8.38;;;;;;;;;;5014334;28;20036;-49
2024/01/16 05:00:20;;;;;;;29.02;8.73;;;;;;;;;;5019532;28;20030;-52
2024/01/16 05:02:46;;;;;;;26.65;9.35;;;;;;;;;;5018874;28;20435;-53
2024/01/16 05:05:12;;;;;;;30.77;9.63;;;;;;;;;;5018016;28;20029;-54
2024/01/16 05:07:38;;;;;;;24.77;9.00;;;;;;;;;;5013223;28;20033;-53
2024/01/16 05:10:04;;;;;;;32.60;10.43;;;;;;;;;;5014729;28;20026;-51
2024/01/16 05:12:30;;;;;;;24.75;8.43;;;;;;;;;;5011791;28;20523;-50
2024/01/16 05:14:56;;;;;;;22.92;9.60;;;;;;;;;;5013888;28;20030;-52
2024/01/16 05:17:23;;;;;;;26.05;9.20;;;;;;;;;;5013474;28;20037;-51
2024/01/16 05:19:49;;;;;;;19.38;9.10;;;;;;;;;;5012940;28;20108;-51
2024/01/16 05:22:15;;;;;;;21.60;9.98;;;;;;;;;;5012900;28;20536;-53
2024/01/16 05:24:41;;;;;;;20.75;8.35;;;;;;;;;;5012988;28;20033;-53
2024/01/16 05:27:08;;;;;;;21.77;9.68;;;;;;;;;;5014183;28;20103;-53
2024/01/16 05:29:37;;;;;;;33.95;9.07;;;;;;;;;;5016091;28;20018;-50
2024/01/16 05:32:03;;;;;;;24.00;8.50;;;;;;;;;;5019170;28;20050;-51
2024/01/16 05:34:29;;;;;;;19.75;8.30;;;;;;;;;;5019454;28;20044;-53
2024/01/16 05:36:56;;;;;;;23.52;7.93;;;;;;;;;;5018755;28;20518;-53
2024/01/16 05:39:22;;;;;;;25.45;7.50;;;;;;;;;;5016145;28;20026;-54
2024/01/16 05:41:48;;;;;;;20.00;7.32;;;;;;;;;;5018328;28;20048;-50
2024/01/16 05:44:13;;;;;;;29.05;8.35;;;;;;;;;;5016172;28;20033;-52
2024/01/16 05:46:39;;;;;;;20.33;8.05;;;;;;;;;;5019097;28;20061;-53
2024/01/16 05:49:05;;;;;;;30.77;8.73;;;;;;;;;;5019323;28;20104;-53
2024/01/16 05:51:31;;;;;;;17.80;8.25;;;;;;;;;;5032219;28;20147;-54
2024/01/16 05:53:57;;;;;;;21.45;7.43;;;;;;;;;;5012840;28;20115;-54
2024/01/16 05:56:23;;;;;;;21.80;7.55;;;;;;;;;;5009822;28;20037;-52
2024/01/16 05:58:49;;;;;;;17.23;7.05;;;;;;;;;;5008900;28;20110;-51
2024/01/16 06:01:15;;;;;;;25.25;7.65;;;;;;;;;;5009501;28;20105;-52
2024/01/16 06:03:43;;;;;;;26.15;8.02;;;;;;;;;;5012399;28;20044;-53
2024/01/16 06:06:09;;;;;;;22.20;6.82;;;;;;;;;;5012141;28;20018;-55
2024/01/16 06:08:35;;;;;;;21.27;6.55;;;;;;;;;;5013145;28;20061;-51
2024/01/16 06:11:01;;;;;;;16.83;6.70;;;;;;;;;;5007725;28;20104;-54
2024/01/16 06:13:27;;;;;;;19.15;7.18;;;;;;;;;;5008310;28;20033;-53
2024/01/16 06:15:54;;;;;;;29.75;8.20;;;;;;;;;;5015115;28;20026;-54
2024/01/16 06:18:20;;;;;;;20.65;7.07;;;;;;;;;;5018964;28;20022;-54
2024/01/16 06:20:46;;;;;;;27.85;7.22;;;;;;;;;;5015746;28;20052;-53
2024/01/16 06:23:12;;;;;;;23.08;6.32;;;;;;;;;;5010934;28;20025;-54
2024/01/16 06:25:38;;;;;;;19.10;6.88;;;;;;;;;;5011548;28;20337;-53
2024/01/16 06:28:05;;;;;;;22.23;6.78;;;;;;;;;;5013134;28;20030;-53
2024/01/16 06:30:31;;;;;;;29.27;6.53;;;;;;;;;;5009723;28;20030;-55
2024/01/16 06:32:57;;;;;;;15.65;5.78;;;;;;;;;;5010754;28;20034;-55
2024/01/16 06:35:23;;;;;;;25.23;7.35;;;;;;;;;;5028177;28;20026;-54
2024/01/16 06:37:49;;;;;;;21.65;8.20;;;;;;;;;;5013490;28;20127;-52
2024/01/16 06:40:15;;;;;;;20.92;5.82;;;;;;;;;;5008750;28;20500;-54
2024/01/16 06:42:41;;;;;;;18.23;5.85;;;;;;;;;;5009685;28;20488;-57
2024/01/16 06:45:07;;;;;;;18.10;5.68;;;;;;;;;;5013376;28;20029;-53
2024/01/16 06:47:33;;;;;;;34.72;7.10;;;;;;;;;;5009072;28;20036;-56
2024/01/16 06:49:59;;;;;;;21.73;6.35;;;;;;;;;;5011285;28;20164;-52
2024/01/16 06:52:25;;;;;;;16.05;5.32;;;;;;;;;;5007388;28;20121;-51
2024/01/16 06:54:51;;;;;;;21.50;6.32;;;;;;;;;;5010882;28;20041;-56
2024/01/16 06:57:17;;;;;;;19.38;6.07;;;;;;;;;;5016122;28;20037;-53
2024/01/16 06:59:43;;;;;;;19.17;5.10;;;;;;;;;;5019810;28;20084;-52
2024/01/16 07:02:09;;;;;;;12.27;5.18;;;;;;;;;;5017928;28;20417;-54
2024/01/16 07:04:35;;;;;;;19.70;5.00;;;;;;;;;;5014817;28;20030;-55
2024/01/16 07:07:02;;;;;;;11.45;4.60;;;;;;;;;;5019916;28;20038;-53
2024/01/16 07:09:28;;;;;;;19.23;5.38;;;;;;;;;;5018292;28;20105;-53
2024/01/16 07:11:54;;;;;;;19.67;5.65;;;;;;;;;;5018618;28;20579;-55
2024/01/16 07:14:20;;;;;;;15.93;5.18;;;;;;;;;;5021092;28;20053;-53
2024/01/16 07:16:46;;;;;;;23.52;4.43;;;;;;;;;;5022306;28;20111;-52
2024/01/16 07:19:15;;;;;;;10.02;4.32;;;;;;;;;;5017446;28;20034;-54
2024/01/16 07:24:45;;;;;;;23.25;5.03;;;;;;;;;;5013657;28;20493;-55
2024/01/16 07:27:11;;;;;;;22.15;5.18;;;;;;;;;;5013926;28;20503;-54
2024/01/16 07:29:37;;;;;;;18.88;5.40;;;;;;;;;;5013982;28;20037;-55
2024/01/16 07:32:03;;;;;;;19.55;5.25;;;;;;;;;;5020566;28;20048;-55
2024/01/16 07:34:29;;;;;;;19.27;4.35;;;;;;;;;;5020326;28;20033;-53
2024/01/16 07:36:55;;;;;;;18.33;4.10;;;;;;;;;;5009648;28;20103;-54
2024/01/16 07:39:22;;;;;;;16.75;4.93;;;;;;;;;;5009224;28;20061;-52
2024/01/16 07:41:48;;;;;;;17.80;4.03;;;;;;;;;;5008863;28;20030;-55
2024/01/16 07:44:14;;;;;;;15.57;3.35;;;;;;;;;;5009599;28;20044;-56
2024/01/16 07:46:40;;;;;;;14.15;3.95;;;;;;;;;;5021776;28;20509;-55
2024/01/16 07:49:06;;;;;;;13.68;3.50;;;;;;;;;;5016296;28;20675;-52
2024/01/16 07:51:32;;;;;;;17.75;3.97;;;;;;;;;;5018668;28;20068;-53
2024/01/16 07:54:08;;;;;;;9.32;3.15;;;;;;;;;;5017060;28;20033;-51
2024/01/16 07:56:35;;;;;;;11.68;3.13;;;;;;;;;;5016722;28;20499;-52
2024/01/16 07:59:01;;;;;;;12.20;3.08;;;;;;;;;;5012094;28;20081;-52
2024/01/16 08:01:28;;;;;;;18.27;3.78;;;;;;;;;;5007317;28;20575;-54
2024/01/16 08:03:54;;;;;;;6.90;2.78;;;;;;;;;;5004078;28;20026;-56
2024/01/16 08:06:20;;;;;;;9.45;3.65;;;;;;;;;;5006604;28;20038;-55
2024/01/16 08:08:46;;;;;;;19.70;2.75;;;;;;;;;;5007480;28;20044;-54
2024/01/16 08:11:12;;;;;;;15.82;4.13;;;;;;;;;;5012049;28;20033;-53
2024/01/16 08:13:38;;;;;;;10.35;2.88;;;;;;;;;;5011997;28;20037;-54
2024/01/16 08:16:04;;;;;;;17.15;2.70;;;;;;;;;;5006917;28;20029;-55
2024/01/16 08:18:33;;;;;;;12.18;3.72;;;;;;;;;;5008049;28;20037;-54
2024/01/16 08:20:59;;;;;;;24.02;3.53;;;;;;;;;;5001799;28;20036;-54
2024/01/16 08:23:25;;;;;;;16.15;4.28;;;;;;;;;;5009493;28;20027;-53
2024/01/16 08:25:51;;;;;;;13.65;3.47;;;;;;;;;;5013123;28;20031;-52
2024/01/16 08:28:20;;;;;;;16.10;3.30;;;;;;;;;;5007733;28;20112;-52
2024/01/16 08:30:46;;;;;;;14.30;3.53;;;;;;;;;;5022426;28;20703;-53
2024/01/16 08:33:12;;;;;;;8.10;2.97;;;;;;;;;;5014252;28;20041;-57
2024/01/16 08:35:38;;;;;;;12.90;4.65;;;;;;;;;;5016635;28;20029;-56
2024/01/16 08:38:04;;;;;;;7.43;2.70;;;;;;;;;;5013814;28;20033;-52
2024/01/16 08:40:30;;;;;;;19.00;3.85;;;;;;;;;;5016898;28;20370;-52
2024/01/16 08:42:57;;;;;;;9.65;2.67;;;;;;;;;;5010771;28;20033;-55
2024/01/16 08:45:23;;;;;;;16.33;3.42;;;;;;;;;;5014335;28;20034;-55
2024/01/16 08:47:49;;;;;;;8.35;2.53;;;;;;;;;;5015494;28;20590;-53
2024/01/16 08:50:15;;;;;;;13.07;3.33;;;;;;;;;;5017682;28;20034;-52
2024/01/16 08:52:41;;;;;;;12.93;3.30;;;;;;;;;;5019264;28;20439;-53
2024/01/16 08:55:08;;;;;;;14.98;3.22;;;;;;;;;;5015094;28;20030;-55
2024/01/16 08:57:34;;;;;;;19.50;3.25;;;;;;;;;;5013120;28;20029;-56
2024/01/16 09:00:02;;;;;;;11.57;3.05;;;;;;;;;;5009915;28;20030;-52
2024/01/16 09:02:28;;;;;;;16.52;2.65;;;;;;;;;;5018310;28;20506;-54
2024/01/16 09:04:55;;;;;;;12.85;2.80;;;;;;;;;;5010817;28;20029;-53
2024/01/16 09:07:21;;;;;;;15.23;3.03;;;;;;;;;;5012493;28;20045;-55
2024/01/16 09:09:47;;;;;;;11.88;2.30;;;;;;;;;;5011666;28;20633;-55
2024/01/16 09:12:13;;;;;;;21.17;4.65;;;;;;;;;;5019519;28;20072;-54
2024/01/16 09:14:39;;;;;;;18.67;3.83;;;;;;;;;;5009049;28;20462;-53
2024/01/16 09:17:05;;;;;;;11.52;3.03;;;;;;;;;;5013791;28;20069;-53
2024/01/16 09:19:31;;;;;;;13.73;4.05;;;;;;;;;;5013267;28;20030;-52
2024/01/16 09:21:57;;;;;;;8.48;2.15;;;;;;;;;;5019073;28;20129;-53
2024/01/16 09:24:23;;;;;;;12.20;2.70;;;;;;;;;;5010671;28;20457;-53
2024/01/16 09:26:49;;;;;;;14.07;2.95;;;;;;;;;;5013688;28;20063;-53
2024/01/16 09:29:16;;;;;;;15.85;2.80;;;;;;;;;;5012651;28;20062;-55
2024/01/16 09:31:42;;;;;;;16.48;3.58;;;;;;;;;;5013348;28;20440;-53
2024/01/16 09:34:08;;;;;;;15.35;2.33;;;;;;;;;;5017115;28;20041;-53
2024/01/16 09:36:37;;;;;;;20.15;3.13;;;;;;;;;;5008327;28;20036;-55
2024/01/16 09:39:07;;;;;;;27.13;3.42;;;;;;;;;;5014999;28;20028;-53
2024/01/16 09:41:34;;;;;;;15.57;2.83;;;;;;;;;;5005967;28;20500;-55
2024/01/16 09:44:00;;;;;;;9.55;2.40;;;;;;;;;;5004716;28;20029;-55
2024/01/16 09:46:26;;;;;;;17.45;3.15;;;;;;;;;;5005975;28;20156;-52
2024/01/16 09:48:54;;;;;;;8.50;3.22;;;;;;;;;;5014044;28;20033;-54
2024/01/16 09:51:20;;;;;;;11.00;3.17;;;;;;;;;;5015296;28;20068;-53
2024/01/16 09:53:46;;;;;;;15.13;2.95;;;;;;;;;;5014686;28;20522;-53
2024/01/16 09:56:17;;;;;;;11.70;3.50;;;;;;;;;;5013662;28;20033;-55
2024/01/16 09:58:44;;;;;;;13.73;2.92;;;;;;;;;;5007313;28;20740;-56
2024/01/16 10:01:13;;;;;;;12.98;3.53;;;;;;;;;;5011062;28;20033;-56
2024/01/16 10:03:39;;;;;;;13.00;4.10;;;;;;;;;;5013751;28;20030;-53
2024/01/16 10:06:06;;;;;;;11.05;3.00;;;;;;;;;;5007818;28;20036;-54
2024/01/16 10:08:32;;;;;;;21.00;3.88;;;;;;;;;;5011682;28;20459;-55
2024/01/16 10:11:01;;;;;;;14.25;3.88;;;;;;;;;;5016933;28;20032;-53
2024/01/16 10:13:27;;;;;;;13.18;3.45;;;;;;;;;;5012293;28;20029;-53
2024/01/16 10:15:55;;;;;;;13.95;3.33;;;;;;;;;;5017524;28;20112;-53
2024/01/16 10:18:24;;;;;;;17.55;3.35;;;;;;;;;;5004311;28;20028;-54
2024/01/16 10:20:50;;;;;;;18.90;3.58;;;;;;;;;;5010925;28;20101;-55
2024/01/16 10:23:23;;;;;;;17.02;3.28;;;;;;;;;;5008873;28;20120;-56
2024/01/16 10:26:05;;;;;;;15.68;3.15;;;;;;;;;;5005833;28;20040;-53
2024/01/16 10:28:32;;;;;;;19.15;3.92;;;;;;;;;;5007510;28;20054;-53
2024/01/16 10:31:02;;;;;;;19.77;3.53;;;;;;;;;;5009377;28;20388;-53
2024/01/16 10:33:28;;;;;;;20.40;3.85;;;;;;;;;;5009622;28;20034;-55
2024/01/16 10:36:08;;;;;;;23.13;4.32;;;;;;;;;;5006763;28;20041;-56
2024/01/16 10:38:38;;;;;;;15.70;3.88;;;;;;;;;;5018608;28;20022;-53
2024/01/16 10:41:25;;;;;;;30.45;3.90;;;;;;;;;;5019514;28;20030;-55
2024/01/16 10:44:03;;;;;;;16.95;5.07;;;;;;;;;;5015135;28;20091;-55
2024/01/16 10:46:29;;;;;;;22.65;4.60;;;;;;;;;;5016987;28;20084;-55
2024/01/16 10:48:59;;;;;;;13.38;3.55;;;;;;;;;;5012119;28;20144;-54
2024/01/16 10:51:26;;;;;;;21.08;3.58;;;;;;;;;;5007944;28;20040;-55
2024/01/16 10:53:57;;;;;;;26.10;3.35;;;;;;;;;;5015759;28;20120;-55
2024/01/16 10:56:23;;;;;;;23.10;3.63;;;;;;;;;;5011091;28;20026;-55
2024/01/16 10:58:54;;;;;;;12.60;2.85;;;;;;;;;;5018417;28;20057;-53
2024/01/16 11:01:20;;;;;;;19.52;2.95;;;;;;;;;;5011407;28;20037;-53
2024/01/16 11:03:48;;;;;;;13.70;3.05;;;;;;;;;;5015205;28;20034;-51
2024/01/16 11:06:15;;;;;;;16.50;3.30;;;;;;;;;;5012421;28;20053;-51
2024/01/16 11:08:41;;;;;;;15.98;3.38;;;;;;;;;;5016394;28;20030;-53
2024/01/16 11:11:08;;;;;;;16.70;3.42;;;;;;;;;;5007984;28;20034;-53
2024/01/16 11:13:34;;;;;;;20.75;4.20;;;;;;;;;;5009002;28;20125;-56
2024/01/16 11:16:01;;;;;;;23.27;4.13;;;;;;;;;;5015880;28;20022;-53
2024/01/16 11:18:27;;;;;;;23.13;3.75;;;;;;;;;;5007587;28;20030;-54
2024/01/16 11:20:54;;;;;;;18.20;4.22;;;;;;;;;;5010956;28;20052;-53
2024/01/16 11:23:20;;;;;;;11.95;3.42;;;;;;;;;;5010831;28;20030;-55
2024/01/16 11:25:46;;;;;;;15.60;3.33;;;;;;;;;;5008441;28;20034;-55
2024/01/16 11:28:13;;;;;;;24.33;3.90;;;;;;;;;;5011723;28;20045;-56
2024/01/16 11:30:40;;;;;;;17.23;3.58;;;;;;;;;;5010445;28;20038;-55
2024/01/16 11:33:06;;;;;;;23.13;4.32;;;;;;;;;;5008208;28;20889;-53
2024/01/16 11:35:39;;;;;;;14.15;3.38;;;;;;;;;;5007155;28;20036;-53
2024/01/16 11:38:16;;;;;;;14.55;3.28;;;;;;;;;;5007409;28;20022;-52
2024/01/16 11:40:42;;;;;;;14.07;3.38;;;;;;;;;;4999478;28;20058;-55
2024/01/16 11:43:26;;;;;;;13.23;2.60;;;;;;;;;;5010056;28;20072;-53
2024/01/16 11:45:53;;;;;;;15.75;3.45;;;;;;;;;;5010835;28;20041;-55
2024/01/16 11:48:19;;;;;;;8.00;2.60;;;;;;;;;;5003766;28;20025;-55
2024/01/16 11:50:45;;;;;;;15.25;2.67;;;;;;;;;;5009177;28;20026;-56
2024/01/16 11:53:11;;;;;;;9.82;2.35;;;;;;;;;;5004292;28;20037;-55
2024/01/16 11:56:00;;;;;;;15.32;3.20;;;;;;;;;;5009924;28;20045;-52
2024/01/16 11:58:28;;;;;;;15.13;2.70;;;;;;;;;;4999551;28;20385;-53
2024/01/16 12:00:57;;;;;;;15.60;3.10;;;;;;;;;;5006367;28;20026;-53
2024/01/16 12:03:23;;;;;;;8.88;2.35;;;;;;;;;;5009140;28;20068;-55
2024/01/16 12:05:58;;;;;;;11.38;3.22;;;;;;;;;;5006217;28;20041;-53
2024/01/16 12:08:24;;;;;;;9.73;2.72;;;;;;;;;;5003365;28;20038;-55
2024/01/16 12:10:50;;;;;;;17.98;3.83;;;;;;;;;;5004159;28;20084;-54
2024/01/16 12:13:16;;;;;;;12.65;2.47;;;;;;;;;;5009756;28;20145;-55
2024/01/16 12:15:43;;;;;;;11.43;3.22;;;;;;;;;;5006184;28;20052;-55
2024/01/16 12:18:09;;;;;;;6.50;2.30;;;;;;;;;;5009731;28;20045;-54
2024/01/16 12:20:36;;;;;;;12.68;3.67;;;;;;;;;;5008639;28;20067;-52
2024/01/16 12:23:03;;;;;;;11.73;2.92;;;;;;;;;;5011356;28;20042;-56
2024/01/16 12:25:30;;;;;;;8.80;2.67;;;;;;;;;;5010718;28;20018;-54
2024/01/16 12:27:56;;;;;;;10.63;3.35;;;;;;;;;;5012868;28;20061;-54
2024/01/16 12:30:24;;;;;;;13.45;3.10;;;;;;;;;;5010389;28;20026;-53
2024/01/16 12:32:50;;;;;;;8.38;2.45;;;;;;;;;;5010368;28;20045;-54
2024/01/16 12:35:22;;;;;;;20.10;4.03;;;;;;;;;;5015209;28;20018;-56
2024/01/16 12:37:58;;;;;;;8.30;3.58;;;;;;;;;;5010907;28;20064;-53
2024/01/16 12:40:25;;;;;;;10.82;3.10;;;;;;;;;;5013618;28;20013;-54
2024/01/16 12:42:51;;;;;;;13.40;3.88;;;;;;;;;;5009000;28;20017;-53
2024/01/16 12:45:17;;;;;;;14.77;3.70;;;;;;;;;;5007326;28;20110;-53
2024/01/16 12:47:44;;;;;;;6.72;2.92;;;;;;;;;;5010509;28;20033;-54
2024/01/16 12:50:10;;;;;;;12.13;3.65;;;;;;;;;;5008246;28;20053;-55
2024/01/16 12:52:36;;;;;;;12.52;3.35;;;;;;;;;;5009305;28;20120;-55
2024/01/16 12:55:04;;;;;;;12.18;3.33;;;;;;;;;;5011010;28;20037;-56
2024/01/16 12:57:30;;;;;;;11.77;3.55;;;;;;;;;;5005282;28;20091;-54
2024/01/16 13:00:00;;;;;;;12.10;3.30;;;;;;;;;;5012119;28;20029;-55
2024/01/16 13:02:26;;;;;;;8.88;3.22;;;;;;;;;;5009942;28;20057;-54
2024/01/16 13:04:59;;;;;;;14.48;3.58;;;;;;;;;;5011202;28;20451;-55
2024/01/16 13:07:26;;;;;;;11.10;3.63;;;;;;;;;;5010078;28;20021;-53
2024/01/16 13:10:06;;;;;;;11.75;4.00;;;;;;;;;;5006112;28;20033;-54
2024/01/16 13:12:33;;;;;;;15.13;3.60;;;;;;;;;;5005988;28;20451;-55
2024/01/16 13:14:59;;;;;;;14.73;4.18;;;;;;;;;;5012708;28;20116;-54
2024/01/16 13:17:25;;;;;;;8.93;2.78;;;;;;;;;;5011736;28;20105;-54
2024/01/16 13:19:51;;;;;;;16.90;4.40;;;;;;;;;;5009922;28;20071;-53
2024/01/16 13:22:17;;;;;;;7.68;2.67;;;;;;;;;;5015764;28;20037;-55
2024/01/16 13:24:43;;;;;;;16.73;4.05;;;;;;;;;;5013372;28;20037;-54
2024/01/16 13:27:09;;;;;;;10.38;3.00;;;;;;;;;;5006387;28;20080;-53
2024/01/16 13:29:39;;;;;;;10.98;3.35;;;;;;;;;;5015243;28;20116;-54
2024/01/16 13:32:05;;;;;;;12.38;3.50;;;;;;;;;;5012277;28;20047;-55
2024/01/16 13:34:31;;;;;;;15.85;4.10;;;;;;;;;;5004242;28;20177;-53
2024/01/16 13:36:59;;;;;;;12.40;3.35;;;;;;;;;;5013738;28;20033;-56
2024/01/16 13:39:27;;;;;;;9.35;4.72;;;;;;;;;;5014424;28;20049;-56
2024/01/16 13:41:53;;;;;;;8.15;3.42;;;;;;;;;;5010264;28;20088;-53
2024/01/16 13:44:19;;;;;;;14.43;3.72;;;;;;;;;;5007056;28;20097;-53
2024/01/16 13:46:45;;;;;;;15.27;4.15;;;;;;;;;;5005915;28;20120;-54
2024/01/16 13:49:11;;;;;;;12.45;3.85;;;;;;;;;;5016611;28;20049;-53
2024/01/16 13:51:37;;;;;;;15.27;4.05;;;;;;;;;;5008900;28;20045;-54
2024/01/16 13:54:03;;;;;;;12.55;4.10;;;;;;;;;;5017523;28;20054;-56
2024/01/16 13:56:29;;;;;;;14.35;4.00;;;;;;;;;;5008764;28;20091;-53
2024/01/16 13:58:55;;;;;;;15.55;4.95;;;;;;;;;;5011710;28;20040;-53
2024/01/16 14:01:21;;;;;;;10.70;3.25;;;;;;;;;;5008025;28;20084;-54
2024/01/16 14:03:48;;;;;;;10.65;3.85;;;;;;;;;;5020934;28;20014;-57
2024/01/16 14:06:15;;;;;;;15.25;4.60;;;;;;;;;;5011290;28;20423;-53
2024/01/16 14:08:41;;;;;;;9.40;3.97;;;;;;;;;;5017119;28;20443;-56
2024/01/16 14:11:07;;;;;;;10.95;4.32;;;;;;;;;;5008240;28;20087;-56
2024/01/16 14:13:33;;;;;;;10.52;3.20;;;;;;;;;;5004227;28;20088;-56
2024/01/16 14:15:59;;;;;;;10.30;4.28;;;;;;;;;;5007684;28;20496;-56
2024/01/16 14:18:25;;;;;;;7.30;4.03;;;;;;;;;;5015983;28;20032;-54
2024/01/16 14:20:51;;;;;;;10.15;3.08;;;;;;;;;;5018103;28;20037;-54
2024/01/16 14:23:17;;;;;;;17.88;3.58;;;;;;;;;;5016334;28;20030;-54
2024/01/16 14:25:45;;;;;;;8.02;3.05;;;;;;;;;;5006908;28;20018;-54
2024/01/16 14:28:11;;;;;;;16.17;4.32;;;;;;;;;;5005256;28;20022;-57